Time;durP1;ratioP1;P1;durP2;ratioP2;P2;SDS_P1;SDS_P2;PMS_P1;PMS_P2;Temp;Humidity;BMP_temperature;BMP_pressure;BME280_temperature;BME280_humidity;BME280_pressure;Samples;Min_cycle;Max_cycle;Signal;HPM_P1;HPM_P2
2021/01/17 00:00:45;;;;;;;38.15;16.95;;;;;;;;;;5095634;28;20025;-72
2021/01/17 00:03:11;;;;;;;28.88;15.88;;;;;;;;;;5096378;28;20044;-72
2021/01/17 00:05:38;;;;;;;37.88;16.90;;;;;;;;;;5095528;28;20026;-72
2021/01/17 00:08:11;;;;;;;37.00;17.02;;;;;;;;;;5095409;28;20012;-71
2021/01/17 00:10:38;;;;;;;34.00;17.02;;;;;;;;;;5095459;28;20058;-70
2021/01/17 00:13:04;;;;;;;56.00;23.58;;;;;;;;;;5095406;28;20015;-72
2021/01/17 00:15:30;;;;;;;49.40;21.07;;;;;;;;;;5096322;28;20356;-71
2021/01/17 00:17:57;;;;;;;54.08;22.50;;;;;;;;;;5096154;28;20399;-73
2021/01/17 00:20:24;;;;;;;42.90;18.58;;;;;;;;;;5095554;28;20016;-71
2021/01/17 00:22:53;;;;;;;50.72;24.55;;;;;;;;;;5095445;28;20020;-70
2021/01/17 00:25:20;;;;;;;51.13;23.15;;;;;;;;;;5095114;28;20028;-72
2021/01/17 00:27:49;;;;;;;35.75;17.30;;;;;;;;;;5095729;28;20016;-71
2021/01/17 00:30:15;;;;;;;39.65;19.88;;;;;;;;;;5095041;28;20103;-72
2021/01/17 00:32:41;;;;;;;37.83;19.08;;;;;;;;;;5094890;28;20020;-72
2021/01/17 00:35:08;;;;;;;33.13;17.08;;;;;;;;;;5095115;28;20441;-72
2021/01/17 00:37:35;;;;;;;31.23;16.42;;;;;;;;;;5095218;28;20024;-71
2021/01/17 00:40:01;;;;;;;35.67;18.00;;;;;;;;;;5094851;28;20034;-72
2021/01/17 00:42:27;;;;;;;34.85;18.35;;;;;;;;;;5095161;28;20372;-72
2021/01/17 00:44:53;;;;;;;37.33;17.58;;;;;;;;;;5096302;28;20028;-72
2021/01/17 00:47:19;;;;;;;34.90;17.45;;;;;;;;;;5095018;28;20524;-71
2021/01/17 00:49:46;;;;;;;38.40;20.13;;;;;;;;;;5095859;28;20031;-74
2021/01/17 00:52:16;;;;;;;37.53;17.23;;;;;;;;;;5095422;28;20351;-74
2021/01/17 00:54:42;;;;;;;34.70;19.98;;;;;;;;;;5094630;28;20016;-75
2021/01/17 00:57:08;;;;;;;36.28;18.30;;;;;;;;;;5093922;28;20082;-73
2021/01/17 00:59:34;;;;;;;46.90;22.67;;;;;;;;;;5094775;28;20056;-75
2021/01/17 01:02:00;;;;;;;50.00;24.05;;;;;;;;;;5095068;28;20106;-75
2021/01/17 01:04:28;;;;;;;46.08;23.45;;;;;;;;;;5094577;28;20479;-75
2021/01/17 01:06:54;;;;;;;39.55;20.73;;;;;;;;;;5094666;28;20020;-74
2021/01/17 01:09:21;;;;;;;34.30;18.75;;;;;;;;;;5093745;28;20119;-73
2021/01/17 01:11:48;;;;;;;41.03;19.25;;;;;;;;;;5094582;28;20028;-72
2021/01/17 01:14:14;;;;;;;31.85;17.73;;;;;;;;;;5094301;28;20049;-72
2021/01/17 01:16:40;;;;;;;30.30;16.02;;;;;;;;;;5095403;28;20024;-72
2021/01/17 01:19:06;;;;;;;25.38;14.18;;;;;;;;;;5095556;28;20020;-71
2021/01/17 01:21:33;;;;;;;24.95;14.63;;;;;;;;;;5095045;28;20111;-72
2021/01/17 01:24:00;;;;;;;29.08;15.82;;;;;;;;;;5090566;28;20028;-72
2021/01/17 01:26:27;;;;;;;33.95;16.50;;;;;;;;;;5094387;28;20059;-72
2021/01/17 01:28:54;;;;;;;23.83;13.60;;;;;;;;;;5095209;28;20028;-72
2021/01/17 01:31:21;;;;;;;25.40;14.50;;;;;;;;;;5095233;28;20051;-72
2021/01/17 01:33:47;;;;;;;21.67;12.45;;;;;;;;;;5094689;28;20027;-74
2021/01/17 01:36:23;;;;;;;22.52;12.45;;;;;;;;;;5075395;28;20047;-73
2021/01/17 01:38:50;;;;;;;25.95;13.02;;;;;;;;;;5073569;28;20028;-74
2021/01/17 01:41:16;;;;;;;22.83;12.50;;;;;;;;;;5073737;28;20028;-74
2021/01/17 01:43:43;;;;;;;22.90;12.45;;;;;;;;;;5092685;28;20061;-74
2021/01/17 01:46:21;;;;;;;26.30;14.02;;;;;;;;;;5093627;28;20024;-73
2021/01/17 01:48:47;;;;;;;30.92;15.48;;;;;;;;;;5093845;28;20057;-73
2021/01/17 01:51:15;;;;;;;26.73;13.75;;;;;;;;;;5095329;28;20020;-74
2021/01/17 01:53:41;;;;;;;;;;;;;;;;;;5093643;28;20513;-75
2021/01/17 01:56:07;;;;;;;21.85;13.23;;;;;;;;;;5093785;28;19904;-75
2021/01/17 01:58:33;;;;;;;27.55;15.35;;;;;;;;;;5093347;28;20024;-75
2021/01/17 02:00:59;;;;;;;30.38;16.17;;;;;;;;;;5094279;28;20410;-76
2021/01/17 02:03:26;;;;;;;27.90;15.20;;;;;;;;;;5093249;28;20024;-74
2021/01/17 02:05:52;;;;;;;24.10;14.48;;;;;;;;;;5093159;28;20120;-74
2021/01/17 02:08:27;;;;;;;24.10;13.85;;;;;;;;;;5093440;28;20456;-74
2021/01/17 02:10:56;;;;;;;25.98;14.38;;;;;;;;;;5094689;28;20102;-74
2021/01/17 02:13:36;;;;;;;28.30;14.35;;;;;;;;;;5092779;28;20509;-74
2021/01/17 02:16:04;;;;;;;27.58;15.82;;;;;;;;;;5094734;28;20024;-74
2021/01/17 02:18:34;;;;;;;22.08;13.05;;;;;;;;;;5093300;28;20024;-74
2021/01/17 02:21:02;;;;;;;23.35;13.38;;;;;;;;;;5092651;28;20416;-74
2021/01/17 02:23:34;;;;;;;22.50;12.77;;;;;;;;;;5093208;28;20024;-72
2021/01/17 02:26:00;;;;;;;20.10;11.82;;;;;;;;;;5094769;28;20459;-72
2021/01/17 02:28:26;;;;;;;23.40;11.57;;;;;;;;;;5092585;28;20155;-74
2021/01/17 02:30:54;;;;;;;25.48;13.10;;;;;;;;;;5092759;28;20123;-75
2021/01/17 02:33:25;;;;;;;26.38;13.20;;;;;;;;;;5093042;28;20468;-74
2021/01/17 02:35:55;;;;;;;26.00;12.40;;;;;;;;;;5093018;28;20020;-75
2021/01/17 02:38:30;;;;;;;26.90;12.43;;;;;;;;;;5092611;28;20027;-73
2021/01/17 02:41:08;;;;;;;29.80;12.55;;;;;;;;;;5092553;28;20081;-71
2021/01/17 02:43:34;;;;;;;25.77;13.82;;;;;;;;;;5094317;28;20471;-73
2021/01/17 02:46:01;;;;;;;30.88;14.82;;;;;;;;;;5092885;28;20110;-71
2021/01/17 02:48:27;;;;;;;25.63;12.85;;;;;;;;;;5092248;28;20028;-71
2021/01/17 02:50:53;;;;;;;26.25;13.00;;;;;;;;;;5093417;28;20082;-72
2021/01/17 02:53:23;;;;;;;24.25;12.90;;;;;;;;;;5092804;28;20028;-74
2021/01/17 02:55:51;;;;;;;21.83;13.10;;;;;;;;;;5092536;28;20016;-72
2021/01/17 02:58:17;;;;;;;;;;;;;;;;;;5093102;28;20036;-73
2021/01/17 03:00:44;;;;;;;23.60;12.15;;;;;;;;;;5092766;28;20256;-74
2021/01/17 03:03:11;;;;;;;23.70;11.90;;;;;;;;;;5092369;28;20065;-72
2021/01/17 03:05:38;;;;;;;20.92;10.77;;;;;;;;;;5092711;28;20020;-72
2021/01/17 03:08:06;;;;;;;22.30;12.75;;;;;;;;;;5092449;28;20101;-71
2021/01/17 03:10:32;;;;;;;27.85;14.60;;;;;;;;;;5092337;28;20453;-72
2021/01/17 03:13:00;;;;;;;26.38;12.63;;;;;;;;;;5092557;28;20024;-72
2021/01/17 03:15:26;;;;;;;25.67;13.18;;;;;;;;;;5092305;28;20034;-74
2021/01/17 03:17:52;;;;;;;24.05;13.63;;;;;;;;;;5092324;28;20027;-72
2021/01/17 03:20:18;;;;;;;25.55;12.88;;;;;;;;;;5092486;28;20518;-72
2021/01/17 03:22:44;;;;;;;21.38;11.68;;;;;;;;;;5093458;28;20020;-72
2021/01/17 03:25:11;;;;;;;23.10;12.43;;;;;;;;;;5092464;28;20024;-71
2021/01/17 03:27:37;;;;;;;21.85;12.77;;;;;;;;;;5093353;28;20020;-72
2021/01/17 03:30:04;;;;;;;19.38;10.55;;;;;;;;;;5093070;28;20461;-70
2021/01/17 03:32:30;;;;;;;20.15;11.60;;;;;;;;;;5094370;28;20051;-70
2021/01/17 03:34:56;;;;;;;18.88;9.43;;;;;;;;;;5096476;28;20020;-70
2021/01/17 03:37:22;;;;;;;20.83;10.95;;;;;;;;;;5095661;28;20637;-71
2021/01/17 03:39:48;;;;;;;17.60;9.77;;;;;;;;;;5096108;28;20024;-72
2021/01/17 03:42:14;;;;;;;16.52;9.60;;;;;;;;;;5096214;28;20163;-71
2021/01/17 03:44:40;;;;;;;18.45;10.48;;;;;;;;;;5094727;28;20012;-73
2021/01/17 03:47:07;;;;;;;17.52;10.30;;;;;;;;;;5094656;28;20024;-73
2021/01/17 03:49:33;;;;;;;18.33;9.60;;;;;;;;;;5094288;28;20131;-72
2021/01/17 03:51:59;;;;;;;18.10;9.60;;;;;;;;;;5095839;28;20453;-75
2021/01/17 03:54:25;;;;;;;18.95;10.30;;;;;;;;;;5095132;28;20031;-71
2021/01/17 03:56:51;;;;;;;19.85;10.75;;;;;;;;;;5095802;28;20577;-72
2021/01/17 03:59:18;;;;;;;17.33;8.93;;;;;;;;;;5096956;28;20073;-73
2021/01/17 04:01:44;;;;;;;17.98;9.27;;;;;;;;;;5096358;28;20073;-72
2021/01/17 04:04:11;;;;;;;17.40;8.98;;;;;;;;;;5097436;28;20461;-71
2021/01/17 04:06:37;;;;;;;16.73;8.75;;;;;;;;;;5095203;28;20019;-73
2021/01/17 04:09:04;;;;;;;17.40;9.98;;;;;;;;;;5096287;28;20023;-72
2021/01/17 04:11:30;;;;;;;16.67;10.10;;;;;;;;;;5096433;28;20351;-72
2021/01/17 04:13:56;;;;;;;17.80;9.98;;;;;;;;;;5095723;28;20020;-71
2021/01/17 04:16:23;;;;;;;18.20;9.88;;;;;;;;;;5095361;28;20019;-73
2021/01/17 04:18:49;;;;;;;22.02;10.50;;;;;;;;;;5095304;28;20031;-73
2021/01/17 04:21:15;;;;;;;15.10;8.80;;;;;;;;;;5096692;28;20016;-74
2021/01/17 04:23:41;;;;;;;17.35;9.52;;;;;;;;;;5096467;28;20449;-72
2021/01/17 04:26:07;;;;;;;16.05;9.20;;;;;;;;;;5096479;28;20023;-72
2021/01/17 04:28:34;;;;;;;16.95;10.63;;;;;;;;;;5095360;28;20031;-72
2021/01/17 04:31:00;;;;;;;23.27;10.57;;;;;;;;;;5096776;28;20048;-73
2021/01/17 04:33:26;;;;;;;19.13;10.32;;;;;;;;;;5096298;28;20020;-72
2021/01/17 04:35:52;;;;;;;16.70;9.57;;;;;;;;;;5095327;28;20016;-72
2021/01/17 04:38:18;;;;;;;20.20;10.15;;;;;;;;;;5095987;28;20028;-72
2021/01/17 04:40:44;;;;;;;16.02;9.82;;;;;;;;;;5094877;28;20024;-72
2021/01/17 04:43:16;;;;;;;19.10;10.70;;;;;;;;;;5094228;28;20367;-72
2021/01/17 04:45:43;;;;;;;18.33;9.52;;;;;;;;;;5094682;28;20107;-73
2021/01/17 04:48:09;;;;;;;19.27;11.88;;;;;;;;;;5094890;28;20136;-73
2021/01/17 04:50:35;;;;;;;20.58;11.32;;;;;;;;;;5096001;28;20095;-73
2021/01/17 04:53:03;;;;;;;16.77;10.18;;;;;;;;;;5094972;28;20016;-72
2021/01/17 04:55:29;;;;;;;22.45;12.52;;;;;;;;;;5094371;28;20060;-73
2021/01/17 04:58:14;;;;;;;37.30;17.00;;;;;;;;;;5094721;28;20464;-73
2021/01/17 05:00:41;;;;;;;57.38;25.08;;;;;;;;;;5095793;28;20032;-72
2021/01/17 05:03:19;;;;;;;27.17;14.63;;;;;;;;;;5094568;28;20024;-72
2021/01/17 05:05:57;;;;;;;27.55;15.43;;;;;;;;;;5094803;28;20365;-73
2021/01/17 05:08:26;;;;;;;20.95;10.75;;;;;;;;;;5095665;28;20032;-74
2021/01/17 05:11:00;;;;;;;19.30;12.00;;;;;;;;;;5094332;28;20028;-73
2021/01/17 05:13:31;;;;;;;23.85;12.68;;;;;;;;;;5094578;28;20089;-72
2021/01/17 05:15:58;;;;;;;29.20;13.57;;;;;;;;;;5094452;28;20043;-72
2021/01/17 05:18:24;;;;;;;24.88;14.98;;;;;;;;;;5094422;28;20016;-73
2021/01/17 05:20:57;;;;;;;28.00;17.50;;;;;;;;;;5094135;28;20048;-73
2021/01/17 05:23:23;;;;;;;23.05;13.10;;;;;;;;;;5094160;28;20452;-73
2021/01/17 05:25:49;;;;;;;19.55;11.30;;;;;;;;;;5094292;28;20024;-72
2021/01/17 05:28:15;;;;;;;23.35;14.13;;;;;;;;;;5094142;28;20115;-72
2021/01/17 05:30:48;;;;;;;26.67;13.77;;;;;;;;;;5093301;28;20036;-72
2021/01/17 05:33:16;;;;;;;28.98;17.10;;;;;;;;;;5094132;28;20111;-71
2021/01/17 05:35:42;;;;;;;27.77;15.40;;;;;;;;;;5095574;28;20505;-72
2021/01/17 05:38:14;;;;;;;34.13;17.77;;;;;;;;;;5095351;28;20016;-72
2021/01/17 05:40:40;;;;;;;32.78;16.73;;;;;;;;;;5093957;28;20024;-71
2021/01/17 05:43:08;;;;;;;23.23;13.40;;;;;;;;;;5093653;28;20453;-73
2021/01/17 05:45:34;;;;;;;22.67;13.43;;;;;;;;;;5094205;28;20532;-73
2021/01/17 05:48:01;;;;;;;22.75;13.07;;;;;;;;;;5093538;28;20016;-74
2021/01/17 05:50:32;;;;;;;25.85;12.25;;;;;;;;;;5093235;28;20457;-72
2021/01/17 05:52:58;;;;;;;18.27;10.48;;;;;;;;;;5094401;28;20349;-73
2021/01/17 05:55:33;;;;;;;23.65;12.55;;;;;;;;;;5093405;28;20016;-73
2021/01/17 05:58:18;;;;;;;30.42;20.13;;;;;;;;;;5094401;28;20020;-72
2021/01/17 06:00:45;;;;;;;19.63;11.05;;;;;;;;;;5094124;28;20012;-72
2021/01/17 06:03:11;;;;;;;20.13;11.75;;;;;;;;;;5093578;28;20475;-72
2021/01/17 06:05:37;;;;;;;24.60;13.20;;;;;;;;;;5094374;28;20472;-71
2021/01/17 06:08:04;;;;;;;26.88;13.32;;;;;;;;;;5094028;28;20024;-72
2021/01/17 06:10:31;;;;;;;21.90;11.80;;;;;;;;;;5092951;28;20023;-72
2021/01/17 06:12:58;;;;;;;27.65;13.77;;;;;;;;;;5093130;28;20027;-71
2021/01/17 06:15:32;;;;;;;27.10;14.73;;;;;;;;;;5092830;28;20012;-72
2021/01/17 06:17:58;;;;;;;23.20;14.25;;;;;;;;;;5093225;28;20031;-72
2021/01/17 06:20:28;;;;;;;19.63;10.57;;;;;;;;;;5093867;28;20012;-72
2021/01/17 06:22:58;;;;;;;21.33;12.05;;;;;;;;;;5094051;28;20016;-73
2021/01/17 06:25:28;;;;;;;21.42;13.38;;;;;;;;;;5092924;28;20016;-72
2021/01/17 06:28:06;;;;;;;30.10;16.08;;;;;;;;;;5093195;28;20065;-71
2021/01/17 06:30:33;;;;;;;37.88;15.75;;;;;;;;;;5092674;28;20475;-70
2021/01/17 06:32:59;;;;;;;31.92;14.02;;;;;;;;;;5092818;28;20160;-72
2021/01/17 06:35:37;;;;;;;29.27;14.82;;;;;;;;;;5093058;28;20349;-71
2021/01/17 06:38:16;;;;;;;30.00;16.38;;;;;;;;;;5093906;28;20024;-74
2021/01/17 06:40:44;;;;;;;29.25;15.38;;;;;;;;;;5093888;28;20445;-71
2021/01/17 06:43:10;;;;;;;27.90;15.20;;;;;;;;;;5092934;28;20085;-67
2021/01/17 06:45:40;;;;;;;35.80;16.77;;;;;;;;;;5093600;28;20394;-69
2021/01/17 06:48:06;;;;;;;37.33;18.70;;;;;;;;;;5092533;28;20031;-67
2021/01/17 06:50:32;;;;;;;35.10;18.13;;;;;;;;;;5094132;28;20453;-70
2021/01/17 06:52:59;;;;;;;31.45;17.65;;;;;;;;;;5093816;28;20031;-66
2021/01/17 06:55:25;;;;;;;34.90;18.13;;;;;;;;;;5093602;28;20066;-68
2021/01/17 06:57:51;;;;;;;37.25;19.85;;;;;;;;;;5093863;28;20039;-69
2021/01/17 07:00:18;;;;;;;34.20;19.77;;;;;;;;;;5093811;28;20031;-67
2021/01/17 07:02:52;;;;;;;37.92;19.45;;;;;;;;;;5092693;28;20244;-66
2021/01/17 07:05:30;;;;;;;37.70;20.52;;;;;;;;;;5093946;28;20027;-65
2021/01/17 07:08:15;;;;;;;38.90;20.23;;;;;;;;;;5092660;28;20028;-65
2021/01/17 07:10:42;;;;;;;33.20;19.25;;;;;;;;;;5093588;28;20043;-66
2021/01/17 07:13:10;;;;;;;34.97;17.38;;;;;;;;;;5093650;28;20019;-67
2021/01/17 07:15:40;;;;;;;36.22;20.88;;;;;;;;;;5093598;28;20016;-66
2021/01/17 07:18:15;;;;;;;37.20;20.17;;;;;;;;;;5093623;28;20031;-65
2021/01/17 07:20:44;;;;;;;30.77;17.05;;;;;;;;;;5093009;28;20027;-66
2021/01/17 07:23:15;;;;;;;33.85;16.80;;;;;;;;;;5093765;28;20095;-73
2021/01/17 07:25:42;;;;;;;26.50;15.13;;;;;;;;;;5092179;28;20073;-68
2021/01/17 07:28:08;;;;;;;;;;;;;;;;;;5093825;28;20099;-70
2021/01/17 07:30:37;;;;;;;25.38;15.18;;;;;;;;;;5091902;28;20396;-71
2021/01/17 07:33:08;;;;;;;24.95;15.00;;;;;;;;;;5093428;28;20118;-70
2021/01/17 07:35:38;;;;;;;25.67;13.45;;;;;;;;;;5092088;28;20116;-73
2021/01/17 07:38:20;;;;;;;26.05;14.23;;;;;;;;;;5092391;28;20111;-70
2021/01/17 07:40:57;;;;;;;29.42;15.70;;;;;;;;;;5092198;28;20453;-69
2021/01/17 07:43:31;;;;;;;31.58;15.45;;;;;;;;;;5093081;28;20369;-67
2021/01/17 07:45:59;;;;;;;35.25;19.27;;;;;;;;;;5093321;28;20024;-69
2021/01/17 07:48:25;;;;;;;;;;;;;;;;;;5093422;28;20028;-67
2021/01/17 07:50:52;;;;;;;47.22;22.67;;;;;;;;;;5093553;28;19907;-69
2021/01/17 07:53:18;;;;;;;;;;;;;;;;;;5093991;28;20038;-68
2021/01/17 07:55:45;;;;;;;50.85;25.65;;;;;;;;;;5093143;28;19900;-67
2021/01/17 07:58:11;;;;;;;41.70;22.43;;;;;;;;;;5092883;28;20354;-71
2021/01/17 08:00:39;;;;;;;52.70;25.33;;;;;;;;;;5092166;28;20027;-72
2021/01/17 08:03:05;;;;;;;;;;;;;;;;;;5092261;28;20023;-72
2021/01/17 08:05:51;;;;;;;46.20;21.52;;;;;;;;;;5093692;28;19900;-71
2021/01/17 08:08:35;;;;;;;61.35;25.65;;;;;;;;;;5091726;28;20027;-72
2021/01/17 08:11:02;;;;;;;50.28;23.63;;;;;;;;;;5092768;28;20077;-72
2021/01/17 08:13:32;;;;;;;70.87;29.97;;;;;;;;;;5093403;28;20058;-72
2021/01/17 08:16:11;;;;;;;91.75;35.67;;;;;;;;;;5092268;28;20457;-64
2021/01/17 08:18:38;;;;;;;72.20;28.25;;;;;;;;;;5094968;28;20028;-65
2021/01/17 08:21:22;;;;;;;61.58;28.17;;;;;;;;;;5095609;28;20017;-66
2021/01/17 08:24:07;;;;;;;69.95;29.92;;;;;;;;;;5097058;28;20138;-68
2021/01/17 08:26:52;;;;;;;70.70;28.60;;;;;;;;;;5096476;28;20058;-68
2021/01/17 08:29:18;;;;;;;66.10;30.15;;;;;;;;;;5095200;28;20107;-67
2021/01/17 08:31:44;;;;;;;56.58;25.38;;;;;;;;;;5107796;28;20040;-67
2021/01/17 08:34:11;;;;;;;40.42;19.00;;;;;;;;;;5095210;28;20020;-68
2021/01/17 08:36:38;;;;;;;62.45;26.95;;;;;;;;;;5095115;28;20028;-64
2021/01/17 08:39:04;;;;;;;45.00;21.87;;;;;;;;;;5096074;28;20099;-64
2021/01/17 08:41:30;;;;;;;44.97;21.92;;;;;;;;;;5096492;28;20464;-66
2021/01/17 08:43:56;;;;;;;59.38;25.98;;;;;;;;;;5096754;28;20016;-64
2021/01/17 08:46:39;;;;;;;71.13;30.98;;;;;;;;;;5095849;28;20031;-64
2021/01/17 08:49:06;;;;;;;57.42;27.08;;;;;;;;;;5096557;28;20476;-64
2021/01/17 08:51:32;;;;;;;48.22;23.35;;;;;;;;;;5096001;28;20050;-64
2021/01/17 08:54:18;;;;;;;55.20;24.73;;;;;;;;;;5096280;28;20016;-63
2021/01/17 08:56:44;;;;;;;54.47;25.52;;;;;;;;;;5095099;28;20035;-64
2021/01/17 08:59:10;;;;;;;53.95;26.92;;;;;;;;;;5095532;28;20461;-63
2021/01/17 09:01:56;;;;;;;45.88;25.52;;;;;;;;;;5095820;28;20468;-64
2021/01/17 09:04:23;;;;;;;44.05;23.30;;;;;;;;;;5095677;28;20095;-64
2021/01/17 09:06:49;;;;;;;37.80;22.70;;;;;;;;;;5095825;28;20160;-64
2021/01/17 09:09:15;;;;;;;57.53;27.52;;;;;;;;;;5095585;28;20027;-63
2021/01/17 09:11:42;;;;;;;41.63;20.95;;;;;;;;;;5095899;28;20024;-64
2021/01/17 09:14:08;;;;;;;43.17;22.27;;;;;;;;;;5095382;28;20028;-63
2021/01/17 09:16:46;;;;;;;54.72;25.35;;;;;;;;;;5095629;28;20016;-64
2021/01/17 09:19:12;;;;;;;44.95;22.98;;;;;;;;;;5095705;28;20419;-64
2021/01/17 09:21:39;;;;;;;52.92;27.27;;;;;;;;;;5095146;28;20449;-63
2021/01/17 09:24:12;;;;;;;44.70;24.38;;;;;;;;;;5095441;28;20049;-64
2021/01/17 09:26:44;;;;;;;48.58;23.52;;;;;;;;;;5095239;28;20058;-66
2021/01/17 09:29:18;;;;;;;41.65;24.67;;;;;;;;;;5095018;28;20032;-65
2021/01/17 09:31:48;;;;;;;66.07;32.33;;;;;;;;;;5095848;28;20036;-64
2021/01/17 09:34:19;;;;;;;65.20;31.45;;;;;;;;;;5094858;28;20483;-64
2021/01/17 09:36:46;;;;;;;53.08;28.83;;;;;;;;;;5095553;28;20024;-65
2021/01/17 09:39:12;;;;;;;44.80;23.00;;;;;;;;;;5095331;28;20030;-63
2021/01/17 09:41:40;;;;;;;53.88;27.35;;;;;;;;;;5094927;28;20020;-65
2021/01/17 09:44:06;;;;;;;47.67;22.10;;;;;;;;;;5095288;28;20035;-64
2021/01/17 09:46:34;;;;;;;52.08;25.48;;;;;;;;;;5095765;28;20020;-64
2021/01/17 09:49:00;;;;;;;45.97;23.23;;;;;;;;;;5094899;28;20042;-64
2021/01/17 09:51:29;;;;;;;47.60;24.63;;;;;;;;;;5094617;28;20521;-64
2021/01/17 09:53:56;;;;;;;41.40;21.10;;;;;;;;;;5095341;28;20529;-64
2021/01/17 09:56:23;;;;;;;52.88;27.33;;;;;;;;;;5094485;28;20016;-65
2021/01/17 09:58:49;;;;;;;49.85;26.85;;;;;;;;;;5094729;28;20368;-65
2021/01/17 10:01:21;;;;;;;48.80;25.92;;;;;;;;;;5094795;28;20027;-65
2021/01/17 10:03:48;;;;;;;47.05;25.15;;;;;;;;;;5094952;28;20147;-64
2021/01/17 10:06:15;;;;;;;53.60;27.58;;;;;;;;;;5094594;28;20099;-65
2021/01/17 10:08:41;;;;;;;50.42;25.25;;;;;;;;;;5094967;28;20117;-64
2021/01/17 10:11:07;;;;;;;66.75;30.98;;;;;;;;;;5094431;28;20425;-65
2021/01/17 10:13:33;;;;;;;59.08;29.20;;;;;;;;;;5094462;28;20395;-64
2021/01/17 10:15:59;;;;;;;50.28;24.58;;;;;;;;;;5094255;28;20464;-65
2021/01/17 10:18:25;;;;;;;46.45;25.85;;;;;;;;;;5094368;28;20020;-63
2021/01/17 10:20:55;;;;;;;47.15;26.45;;;;;;;;;;5094607;28;20022;-64
2021/01/17 10:23:28;;;;;;;47.83;26.80;;;;;;;;;;5093291;28;20364;-65
2021/01/17 10:25:54;;;;;;;52.97;27.33;;;;;;;;;;5094015;28;20042;-66
2021/01/17 10:28:20;;;;;;;58.55;30.33;;;;;;;;;;5094081;28;20548;-64
2021/01/17 10:30:46;;;;;;;60.60;31.08;;;;;;;;;;5093824;28;20067;-64
2021/01/17 10:33:13;;;;;;;47.20;23.63;;;;;;;;;;5094138;28;20023;-63
2021/01/17 10:35:43;;;;;;;58.17;27.33;;;;;;;;;;5094176;28;20453;-63
2021/01/17 10:38:09;;;;;;;70.30;37.45;;;;;;;;;;5093811;28;20016;-63
2021/01/17 10:40:36;;;;;;;58.95;31.75;;;;;;;;;;5094435;28;20507;-64
2021/01/17 10:43:04;;;;;;;77.32;36.72;;;;;;;;;;5093770;28;20020;-64
2021/01/17 10:45:30;;;;;;;81.25;38.15;;;;;;;;;;5093708;28;20024;-64
2021/01/17 10:48:03;;;;;;;79.35;38.65;;;;;;;;;;5094057;28;20035;-63
2021/01/17 10:50:31;;;;;;;68.65;33.63;;;;;;;;;;5093979;28;20067;-66
2021/01/17 10:53:00;;;;;;;63.40;32.20;;;;;;;;;;5093820;28;20472;-64
2021/01/17 10:55:46;;;;;;;55.72;28.50;;;;;;;;;;5094184;28;20060;-65
2021/01/17 10:58:19;;;;;;;51.47;26.08;;;;;;;;;;5093579;28;20020;-64
2021/01/17 11:00:51;;;;;;;52.13;27.38;;;;;;;;;;5094277;28;20026;-64
2021/01/17 11:03:26;;;;;;;58.97;30.10;;;;;;;;;;5093997;28;20047;-65
2021/01/17 11:06:03;;;;;;;63.25;29.90;;;;;;;;;;5093315;28;20024;-67
2021/01/17 11:08:32;;;;;;;63.40;32.70;;;;;;;;;;5094535;28;20348;-63
2021/01/17 11:10:58;;;;;;;70.13;35.08;;;;;;;;;;5093855;28;20100;-63
2021/01/17 11:13:24;;;;;;;64.70;33.85;;;;;;;;;;5093684;28;20016;-67
2021/01/17 11:15:50;;;;;;;77.45;38.80;;;;;;;;;;5094250;28;20111;-63
2021/01/17 11:18:20;;;;;;;76.35;36.20;;;;;;;;;;5094316;28;20012;-63
2021/01/17 11:20:47;;;;;;;56.25;29.70;;;;;;;;;;5093581;28;20023;-66
2021/01/17 11:23:13;;;;;;;62.75;30.77;;;;;;;;;;5094351;28;20356;-67
2021/01/17 11:25:39;;;;;;;59.53;31.83;;;;;;;;;;5094515;28;20024;-66
2021/01/17 11:28:06;;;;;;;64.53;32.95;;;;;;;;;;5094323;28;20012;-66
2021/01/17 11:30:33;;;;;;;74.75;37.78;;;;;;;;;;5094083;28;20093;-65
2021/01/17 11:33:09;;;;;;;53.72;28.20;;;;;;;;;;5093752;28;20032;-65
2021/01/17 11:35:36;;;;;;;42.67;21.20;;;;;;;;;;5094221;28;20093;-66
2021/01/17 11:38:02;;;;;;;50.53;25.60;;;;;;;;;;5093910;28;20036;-66
2021/01/17 11:40:28;;;;;;;65.05;30.42;;;;;;;;;;5093742;28;20341;-65
2021/01/17 11:43:04;;;;;;;60.05;31.27;;;;;;;;;;5093584;28;20020;-66
2021/01/17 11:45:30;;;;;;;45.00;23.80;;;;;;;;;;5093498;28;20423;-66
2021/01/17 11:47:57;;;;;;;36.92;21.60;;;;;;;;;;5093008;28;20024;-65
2021/01/17 11:50:23;;;;;;;36.03;22.00;;;;;;;;;;5091242;28;20020;-66
2021/01/17 11:53:15;;;;;;;34.58;20.05;;;;;;;;;;5085226;28;20399;-65
2021/01/17 11:55:48;;;;;;;39.55;22.85;;;;;;;;;;5074892;28;20028;-66
2021/01/17 11:58:16;;;;;;;47.22;25.52;;;;;;;;;;5077299;28;20018;-66
2021/01/17 12:00:52;;;;;;;44.92;23.70;;;;;;;;;;5077033;28;20099;-65
2021/01/17 12:03:37;;;;;;;34.03;18.95;;;;;;;;;;5081100;28;20456;-66
2021/01/17 12:06:17;;;;;;;55.45;26.33;;;;;;;;;;5097614;28;20020;-66
2021/01/17 12:09:00;;;;;;;37.97;21.13;;;;;;;;;;5095737;28;20024;-65
2021/01/17 12:11:30;;;;;;;44.42;23.25;;;;;;;;;;5097391;28;20037;-70
2021/01/17 12:13:57;;;;;;;50.38;23.83;;;;;;;;;;5097455;28;20071;-66
2021/01/17 12:16:36;;;;;;;50.50;27.85;;;;;;;;;;5096964;28;20441;-68
2021/01/17 12:19:03;;;;;;;39.30;20.15;;;;;;;;;;5096385;28;20439;-66
2021/01/17 12:21:30;;;;;;;46.65;21.55;;;;;;;;;;5096635;28;20020;-66
2021/01/17 12:23:57;;;;;;;46.15;23.80;;;;;;;;;;5096224;28;20099;-64
2021/01/17 12:26:24;;;;;;;45.15;25.02;;;;;;;;;;5096673;28;20024;-64
2021/01/17 12:28:50;;;;;;;43.53;24.52;;;;;;;;;;5096328;28;20055;-65
2021/01/17 12:31:17;;;;;;;34.65;19.70;;;;;;;;;;5096442;28;20044;-64
2021/01/17 12:33:43;;;;;;;42.37;21.27;;;;;;;;;;5096199;28;20023;-65
2021/01/17 12:36:10;;;;;;;39.13;21.10;;;;;;;;;;5095167;28;20031;-66
2021/01/17 12:38:36;;;;;;;39.95;22.50;;;;;;;;;;5096222;28;20028;-66
2021/01/17 12:41:02;;;;;;;37.35;21.92;;;;;;;;;;5096559;28;20110;-65
2021/01/17 12:43:29;;;;;;;43.42;23.60;;;;;;;;;;5095478;28;20093;-66
2021/01/17 12:45:55;;;;;;;41.60;24.77;;;;;;;;;;5096384;28;20016;-65
2021/01/17 12:48:21;;;;;;;52.17;30.60;;;;;;;;;;5095572;28;20016;-66
2021/01/17 12:50:47;;;;;;;135.52;55.50;;;;;;;;;;5095939;28;20396;-65
2021/01/17 12:53:13;;;;;;;97.00;47.60;;;;;;;;;;5096177;28;20399;-66
2021/01/17 12:55:40;;;;;;;87.53;42.25;;;;;;;;;;5096369;28;20028;-65
2021/01/17 12:58:07;;;;;;;92.68;43.80;;;;;;;;;;5093466;28;20549;-64
2021/01/17 13:00:33;;;;;;;50.53;28.55;;;;;;;;;;5094320;28;20043;-65
2021/01/17 13:02:59;;;;;;;47.42;27.92;;;;;;;;;;5094680;28;20016;-65
2021/01/17 13:05:26;;;;;;;46.90;28.15;;;;;;;;;;5091998;28;20020;-66
2021/01/17 13:07:52;;;;;;;75.03;40.10;;;;;;;;;;5094594;28;20024;-65
2021/01/17 13:10:18;;;;;;;61.33;30.20;;;;;;;;;;5093761;28;20020;-65
2021/01/17 13:12:44;;;;;;;51.75;26.45;;;;;;;;;;5094177;28;20039;-65
2021/01/17 13:15:10;;;;;;;53.70;20.40;;;;;;;;;;5094386;28;20028;-65
2021/01/17 13:17:36;;;;;;;86.25;36.60;;;;;;;;;;5093759;28;20024;-65
2021/01/17 13:20:03;;;;;;;87.47;39.28;;;;;;;;;;5094383;28;20016;-66
2021/01/17 13:22:29;;;;;;;101.03;43.63;;;;;;;;;;5094245;28;20023;-66
2021/01/17 13:24:55;;;;;;;40.72;23.85;;;;;;;;;;5093891;28;20110;-67
2021/01/17 13:27:21;;;;;;;54.67;28.60;;;;;;;;;;5094031;28;20016;-68
2021/01/17 13:29:48;;;;;;;58.40;31.33;;;;;;;;;;5095376;28;20124;-66
2021/01/17 13:32:14;;;;;;;61.38;30.58;;;;;;;;;;5092859;28;20368;-66
2021/01/17 13:34:41;;;;;;;60.72;31.63;;;;;;;;;;5092445;28;20421;-68
2021/01/17 13:37:09;;;;;;;41.95;23.55;;;;;;;;;;5092281;28;20418;-67
2021/01/17 13:39:35;;;;;;;45.95;24.42;;;;;;;;;;5091096;28;20028;-67
2021/01/17 13:42:01;;;;;;;47.00;24.85;;;;;;;;;;5092686;28;20031;-68
2021/01/17 13:44:28;;;;;;;44.63;26.83;;;;;;;;;;5092131;28;20020;-67
2021/01/17 13:46:54;;;;;;;41.20;24.27;;;;;;;;;;5091168;28;20390;-68
2021/01/17 13:49:21;;;;;;;48.13;26.45;;;;;;;;;;5092069;28;20107;-66
2021/01/17 13:51:47;;;;;;;28.65;17.95;;;;;;;;;;5092414;28;20073;-67
2021/01/17 13:54:13;;;;;;;36.00;23.30;;;;;;;;;;5091136;28;20015;-66
2021/01/17 13:56:40;;;;;;;45.85;24.92;;;;;;;;;;5091888;28;20106;-66
2021/01/17 13:59:06;;;;;;;34.10;18.92;;;;;;;;;;5091043;28;20476;-67
2021/01/17 14:01:36;;;;;;;35.55;21.77;;;;;;;;;;5091712;28;20356;-66
2021/01/17 14:04:02;;;;;;;51.25;29.67;;;;;;;;;;5090738;28;20012;-67
2021/01/17 14:06:28;;;;;;;62.97;33.53;;;;;;;;;;5092300;28;20047;-67
2021/01/17 14:08:54;;;;;;;96.30;47.97;;;;;;;;;;5090680;28;20024;-66
2021/01/17 14:11:20;;;;;;;68.38;32.83;;;;;;;;;;5092786;28;20023;-65
2021/01/17 14:13:46;;;;;;;60.55;29.63;;;;;;;;;;5092735;28;20028;-68
2021/01/17 14:16:12;;;;;;;72.95;33.38;;;;;;;;;;5092894;28;20099;-68
2021/01/17 14:18:38;;;;;;;62.65;30.92;;;;;;;;;;5092945;28;20046;-68
2021/01/17 14:21:05;;;;;;;67.85;32.63;;;;;;;;;;5092663;28;20426;-67
2021/01/17 14:23:31;;;;;;;55.55;26.67;;;;;;;;;;5091408;28;20376;-68
2021/01/17 14:25:57;;;;;;;45.22;23.52;;;;;;;;;;5091490;28;20030;-69